Houwa Maru — JL6394 — position and weather

sailwx.info

Track history (hours):
 
Tides and Currents Weather Stations Pressure Air Temp Water Temp Dewpoint Dewpoint Depression Visibility Wind Speed Wind Dir Waves Ship Positions

Houwa Maru

Last reported at 2016-Aug-23 11:28 UTC. Time now 2016-Aug-26 10:11 UTC.
Position N 35°08' E 139°45'.

Length 76 m.

Type: Ship. MMSI: 431500378.

Date/timePositionNaut miles runAvg speedWind from/ knotsBaromVisibWave heightAir tempDewpointWater temp
2016-Aug-23 11:28N 35°08' E 139°45'910.0
2016-Aug-23 10:33N 35°17' E 139°45'9 8.8
2016-Aug-23 09:33N 35°26' E 139°45'5 4.5
2016-Aug-23 08:30N 35°31' E 139°45'0 0.0
2016-Aug-23 07:33N 35°31' E 139°45'0 0.0
2016-Aug-23 06:33N 35°31' E 139°45'0 0.0
2016-Aug-23 05:33N 35°31' E 139°45'0 0.0
2016-Aug-23 04:33N 35°31' E 139°45'0 0.0
2016-Aug-23 03:33N 35°31' E 139°45'0 0.0
2016-Aug-23 02:30N 35°31' E 139°45'0 0.0
2016-Aug-23 01:33N 35°31' E 139°45'0 0.0
2016-Aug-23 00:33N 35°31' E 139°45'0 0.0
2016-Aug-22 23:30N 35°31' E 139°45'0 0.0
2016-Aug-22 22:30N 35°31' E 139°45'1 1.6
2016-Aug-22 21:33N 35°30' E 139°47'5 5.2
2016-Aug-22 20:30N 35°26' E 139°50'0 0.0
2016-Aug-22 19:33N 35°26' E 139°50'0 0.0
2016-Aug-22 18:18N 35°26' E 139°50'0 0.0
2016-Aug-22 17:33N 35°26' E 139°50'0 0.0
2016-Aug-22 15:27N 35°26' E 139°50'0 0.0
2016-Aug-22 14:09N 35°26' E 139°50'0 0.0
2016-Aug-22 11:33N 35°26' E 139°50'0 0.0
2016-Aug-22 09:30N 35°26' E 139°50'0 0.0
2016-Aug-22 08:24N 35°26' E 139°50'0 0.0
2016-Aug-22 07:33N 35°26' E 139°50'0 0.0
2016-Aug-22 06:33N 35°26' E 139°50'0 0.1
2016-Aug-22 04:31N 35°26' E 139°50'0 0.1
2016-Aug-22 03:28N 35°26' E 139°50'0 0.0
2016-Aug-22 02:28N 35°26' E 139°50'0 0.0
2016-Aug-22 01:31N 35°26' E 139°50'0 0.1
2016-Aug-22 00:31N 35°26' E 139°50'0 0.0
2016-Aug-21 23:31N 35°26' E 139°50'0 0.0
2016-Aug-21 22:31N 35°26' E 139°50'0 0.0
2016-Aug-21 21:28N 35°26' E 139°50'0 0.0
2016-Aug-21 20:31N 35°26' E 139°50'0 0.1
2016-Aug-21 19:31N 35°26' E 139°50'0 0.0
2016-Aug-21 18:28N 35°26' E 139°50'0 0.1
2016-Aug-21 17:28N 35°26' E 139°50'0 0.0
2016-Aug-21 16:31N 35°26' E 139°50'0 0.0
2016-Aug-21 15:31N 35°26' E 139°50'0 0.0
2016-Aug-21 14:28N 35°26' E 139°50'0 0.0
2016-Aug-21 13:31N 35°26' E 139°50'0 0.0
2016-Aug-21 12:32N 35°26' E 139°50'5 4.7
2016-Aug-21 11:32N 35°22' E 139°54'0 0.0
2016-Aug-21 10:29N 35°22' E 139°54'0 0.0
2016-Aug-21 09:14N 35°22' E 139°54'0 0.0
2016-Aug-21 08:17N 35°22' E 139°54'0 0.0
2016-Aug-21 07:32N 35°22' E 139°54'0 0.0
2016-Aug-21 06:32N 35°22' E 139°54'0 0.0
2016-Aug-21 05:32N 35°22' E 139°54'0 0.0
2016-Aug-21 04:29N 35°22' E 139°54'0 0.0
2016-Aug-21 03:29N 35°22' E 139°54'0 0.0
2016-Aug-21 02:32N 35°22' E 139°54'0 0.0
2016-Aug-21 01:32N 35°22' E 139°54'0 0.0
2016-Aug-21 00:32N 35°22' E 139°54'0 0.0
2016-Aug-20 23:32N 35°22' E 139°54'0 0.0
2016-Aug-20 22:32N 35°22' E 139°54'0 0.0
2016-Aug-20 21:32N 35°22' E 139°54'0 0.0
2016-Aug-20 20:32N 35°22' E 139°54'0 0.0
2016-Aug-20 19:29N 35°22' E 139°54'0 0.0
2016-Aug-20 18:17N 35°22' E 139°54'0 0.0
2016-Aug-20 17:32N 35°22' E 139°54'0 0.0
2016-Aug-20 16:32N 35°22' E 139°54'0 0.0
2016-Aug-20 15:26N 35°22' E 139°54'0 0.0
2016-Aug-20 14:32N 35°22' E 139°54'0 0.0
2016-Aug-20 13:29N 35°22' E 139°54'0 0.0
2016-Aug-20 12:32N 35°22' E 139°54'0 0.0
2016-Aug-20 11:32N 35°22' E 139°54'4 4.3
2016-Aug-20 10:33N 35°24' E 139°50'1110.7
2016-Aug-20 09:33N 35°34' E 139°56'7 6.5
2016-Aug-20 08:30N 35°41' E 139°58'0 0.0
2016-Aug-20 07:33N 35°41' E 139°58'0 0.0
2016-Aug-20 06:33N 35°41' E 139°58'0 0.0
2016-Aug-20 05:24N 35°41' E 139°58'0 0.0
2016-Aug-20 04:30N 35°41' E 139°58'0 0.0
2016-Aug-20 03:30N 35°41' E 139°58'0 0.0
2016-Aug-20 02:30N 35°41' E 139°58'0 0.0
2016-Aug-20 01:30N 35°41' E 139°58'0 0.0
2016-Aug-20 00:24N 35°41' E 139°58'0 0.0
2016-Aug-19 23:27N 35°41' E 139°58'0 0.0
2016-Aug-19 22:30N 35°41' E 139°58'0 0.0
2016-Aug-19 21:27N 35°41' E 139°58'0 0.1
2016-Aug-19 20:31N 35°41' E 139°58'0 0.0
2016-Aug-19 19:31N 35°41' E 139°58'0 0.0
2016-Aug-19 18:31N 35°41' E 139°58'0 0.0
2016-Aug-19 17:31N 35°41' E 139°58'0 0.0
2016-Aug-19 16:31N 35°41' E 139°58'0 0.0
2016-Aug-19 15:31N 35°41' E 139°58'0 0.0
2016-Aug-19 14:25N 35°41' E 139°58'0 0.0
2016-Aug-19 13:31N 35°41' E 139°58'0 0.0
2016-Aug-19 12:31N 35°41' E 139°58'0 0.0
2016-Aug-19 11:31N 35°41' E 139°58'0 0.0
2016-Aug-19 10:31N 35°41' E 139°58'0 0.0
2016-Aug-19 09:25N 35°41' E 139°58'0 0.0
2016-Aug-19 08:31N 35°41' E 139°58'0 0.0
2016-Aug-19 07:31N 35°41' E 139°58'0 0.0
2016-Aug-19 06:28N 35°41' E 139°58'0 0.0
2016-Aug-19 05:31N 35°41' E 139°58'0 0.0
2016-Aug-19 04:28N 35°41' E 139°58'0 0.0
2016-Aug-19 03:31N 35°41' E 139°58'0 0.0
2016-Aug-19 02:31N 35°41' E 139°58'0 0.0
2016-Aug-19 01:22N 35°41' E 139°58'0 0.0
2016-Aug-19 00:31N 35°41' E 139°58'0 0.0
2016-Aug-18 23:25N 35°41' E 139°58'0 0.0
2016-Aug-18 22:31N 35°41' E 139°58'0 0.0
2016-Aug-18 21:31N 35°41' E 139°58'0 0.0
2016-Aug-18 20:31N 35°41' E 139°58'0 0.0
2016-Aug-18 19:31N 35°41' E 139°58'0 0.0
2016-Aug-18 18:28N 35°41' E 139°58'0 0.0
2016-Aug-18 17:25N 35°41' E 139°58'0 0.0
2016-Aug-18 16:31N 35°41' E 139°58'0 0.0
2016-Aug-18 15:31N 35°41' E 139°58'0 0.0
2016-Aug-18 14:31N 35°41' E 139°58'0 0.0
2016-Aug-18 13:25N 35°41' E 139°58'0 0.0
2016-Aug-18 12:28N 35°41' E 139°58'0 0.0
2016-Aug-18 11:28N 35°41' E 139°58'0 0.0
2016-Aug-18 10:31N 35°41' E 139°58'0 0.0
2016-Aug-18 09:25N 35°41' E 139°58'0 0.0
2016-Aug-18 08:31N 35°41' E 139°58'0 0.0
2016-Aug-18 07:28N 35°41' E 139°58'0 0.0
2016-Aug-18 06:31N 35°41' E 139°58'0 0.0
2016-Aug-18 05:28N 35°41' E 139°58'0 0.0
2016-Aug-18 04:31N 35°41' E 139°58'0 0.0
2016-Aug-18 03:31N 35°41' E 139°58'0 0.0
2016-Aug-18 02:31N 35°41' E 139°58'0 0.0
2016-Aug-18 01:31N 35°41' E 139°58'0 0.0
2016-Aug-18 00:31N 35°41' E 139°58'0 0.0
2016-Aug-17 23:33N 35°41' E 139°58'4 4.0
2016-Aug-17 22:31N 35°36' E 139°57'0 0.0
2016-Aug-17 21:28N 35°36' E 139°57'0 0.0
2016-Aug-17 20:28N 35°36' E 139°57'0 0.0
2016-Aug-17 19:25N 35°36' E 139°57'0 0.0
2016-Aug-17 18:25N 35°36' E 139°57'0 0.0
2016-Aug-17 17:22N 35°36' E 139°57'0 0.0
2016-Aug-17 16:31N 35°36' E 139°57'0 0.0
2016-Aug-17 15:31N 35°36' E 139°57'0 0.0
2016-Aug-17 14:28N 35°36' E 139°57'0 0.0
2016-Aug-17 13:16N 35°36' E 139°57'0 0.0
2016-Aug-17 12:28N 35°36' E 139°57'0 0.0
2016-Aug-17 11:28N 35°36' E 139°57'0 0.0
2016-Aug-17 10:28N 35°36' E 139°57'0 0.0
2016-Aug-17 09:28N 35°36' E 139°57'0 0.0
2016-Aug-17 08:28N 35°36' E 139°57'0 0.0
2016-Aug-17 07:22N 35°36' E 139°57'0 0.0
2016-Aug-17 06:19N 35°36' E 139°57'0 0.0
2016-Aug-17 03:28N 35°36' E 139°57'0 0.0
2016-Aug-17 02:22N 35°36' E 139°57'0 0.0
2016-Aug-17 01:10N 35°36' E 139°57'0 0.0
2016-Aug-17 00:28N 35°36' E 139°57'0 0.0
2016-Aug-16 23:31N 35°36' E 139°57'0 0.0
2016-Aug-16 22:28N 35°36' E 139°57'0 0.0
2016-Aug-16 21:19N 35°36' E 139°57'0 0.1
2016-Aug-16 20:31N 35°36' E 139°57'0 0.0
2016-Aug-16 19:28N 35°36' E 139°57'0 0.0
2016-Aug-16 18:31N 35°36' E 139°57'0 0.0
2016-Aug-16 17:31N 35°36' E 139°57'0 0.0
2016-Aug-16 16:28N 35°36' E 139°57'0 0.0
2016-Aug-16 15:31N 35°36' E 139°57'0 0.0
2016-Aug-16 14:22N 35°36' E 139°57'0 0.0
2016-Aug-16 13:31N 35°36' E 139°57'0 0.0
2016-Aug-16 12:28N 35°36' E 139°57'0 0.0
2016-Aug-16 11:28N 35°36' E 139°57'0 0.0
2016-Aug-16 10:25N 35°36' E 139°57'0 0.0
2016-Aug-16 09:28N 35°36' E 139°57'0 0.1
2016-Aug-16 08:28N 35°36' E 139°57'0 0.0
2016-Aug-16 07:28N 35°36' E 139°57'0 0.0
2016-Aug-16 04:28N 35°36' E 139°57'0 0.0
2016-Aug-16 03:22N 35°36' E 139°57'0 0.0
2016-Aug-16 02:31N 35°36' E 139°57'0 0.0
2016-Aug-16 01:25N 35°36' E 139°57'0 0.1
2016-Aug-16 00:31N 35°36' E 139°57'0 0.1
2016-Aug-15 23:31N 35°36' E 139°57'0 0.0
2016-Aug-15 22:31N 35°36' E 139°57'0 0.0
2016-Aug-15 21:31N 35°36' E 139°57'0 0.0
2016-Aug-15 20:16N 35°36' E 139°57'0 0.1
2016-Aug-15 19:28N 35°36' E 139°57'0 0.0
2016-Aug-15 18:31N 35°36' E 139°57'0 0.0
2016-Aug-15 17:22N 35°36' E 139°57'0 0.0
2016-Aug-15 16:22N 35°36' E 139°57'0 0.0
2016-Aug-15 15:16N 35°36' E 139°57'0 0.0
2016-Aug-15 14:22N 35°36' E 139°57'0 0.0
2016-Aug-15 13:16N 35°36' E 139°57'0 0.1
2016-Aug-15 12:28N 35°36' E 139°57'0 0.0
2016-Aug-15 11:22N 35°36' E 139°57'0 0.0
2016-Aug-15 10:22N 35°36' E 139°57'0 0.0
2016-Aug-15 09:28N 35°36' E 139°57'0 0.0
2016-Aug-15 08:28N 35°36' E 139°57'1 1.0
2016-Aug-15 07:32N 35°36' E 139°57'7 7.1
2016-Aug-15 06:32N 35°29' E 139°53'2210.7
2016-Aug-15 04:26N 35°08' E 139°46'70 7.9
2016-Aug-14 19:31N 35°49' E 140°56'  
Track history (hours):
 
Tides and Currents Weather Stations Pressure Air Temp Water Temp Dewpoint Dewpoint Depression Visibility Wind Speed Wind Dir Waves Ship Positions

Houwa Maru

Last reported at 2016-Aug-23 11:28 UTC. Time now 2016-Aug-26 10:11 UTC.
Position N 35°08' E 139°45'.

Length 76 m.

Type: Ship. MMSI: 431500378.

Date/timePositionNaut miles runAvg speedWind from/ knotsBaromVisibWave heightAir tempDewpointWater temp
2016-Aug-23 11:28N 35°08' E 139°45'910.0
2016-Aug-23 10:33N 35°17' E 139°45'9 8.8
2016-Aug-23 09:33N 35°26' E 139°45'5 4.5
2016-Aug-23 08:30N 35°31' E 139°45'0 0.0
2016-Aug-23 07:33N 35°31' E 139°45'0 0.0
2016-Aug-23 06:33N 35°31' E 139°45'0 0.0
2016-Aug-23 05:33N 35°31' E 139°45'0 0.0
2016-Aug-23 04:33N 35°31' E 139°45'0 0.0
2016-Aug-23 03:33N 35°31' E 139°45'0 0.0
2016-Aug-23 02:30N 35°31' E 139°45'0 0.0
2016-Aug-23 01:33N 35°31' E 139°45'0 0.0
2016-Aug-23 00:33N 35°31' E 139°45'0 0.0
2016-Aug-22 23:30N 35°31' E 139°45'0 0.0
2016-Aug-22 22:30N 35°31' E 139°45'1 1.6
2016-Aug-22 21:33N 35°30' E 139°47'5 5.2
2016-Aug-22 20:30N 35°26' E 139°50'0 0.0
2016-Aug-22 19:33N 35°26' E 139°50'0 0.0
2016-Aug-22 18:18N 35°26' E 139°50'0 0.0
2016-Aug-22 17:33N 35°26' E 139°50'0 0.0
2016-Aug-22 15:27N 35°26' E 139°50'0 0.0
2016-Aug-22 14:09N 35°26' E 139°50'0 0.0
2016-Aug-22 11:33N 35°26' E 139°50'0 0.0
2016-Aug-22 09:30N 35°26' E 139°50'0 0.0
2016-Aug-22 08:24N 35°26' E 139°50'0 0.0
2016-Aug-22 07:33N 35°26' E 139°50'0 0.0
2016-Aug-22 06:33N 35°26' E 139°50'0 0.1
2016-Aug-22 04:31N 35°26' E 139°50'0 0.1
2016-Aug-22 03:28N 35°26' E 139°50'0 0.0
2016-Aug-22 02:28N 35°26' E 139°50'0 0.0
2016-Aug-22 01:31N 35°26' E 139°50'0 0.1
2016-Aug-22 00:31N 35°26' E 139°50'0 0.0
2016-Aug-21 23:31N 35°26' E 139°50'0 0.0
2016-Aug-21 22:31N 35°26' E 139°50'0 0.0
2016-Aug-21 21:28N 35°26' E 139°50'0 0.0
2016-Aug-21 20:31N 35°26' E 139°50'0 0.1
2016-Aug-21 19:31N 35°26' E 139°50'0 0.0
2016-Aug-21 18:28N 35°26' E 139°50'0 0.1
2016-Aug-21 17:28N 35°26' E 139°50'0 0.0
2016-Aug-21 16:31N 35°26' E 139°50'0 0.0
2016-Aug-21 15:31N 35°26' E 139°50'0 0.0
2016-Aug-21 14:28N 35°26' E 139°50'0 0.0
2016-Aug-21 13:31N 35°26' E 139°50'0 0.0
2016-Aug-21 12:32N 35°26' E 139°50'5 4.7
2016-Aug-21 11:32N 35°22' E 139°54'0 0.0
2016-Aug-21 10:29N 35°22' E 139°54'0 0.0
2016-Aug-21 09:14N 35°22' E 139°54'0 0.0
2016-Aug-21 08:17N 35°22' E 139°54'0 0.0
2016-Aug-21 07:32N 35°22' E 139°54'0 0.0
2016-Aug-21 06:32N 35°22' E 139°54'0 0.0
2016-Aug-21 05:32N 35°22' E 139°54'0 0.0
2016-Aug-21 04:29N 35°22' E 139°54'0 0.0
2016-Aug-21 03:29N 35°22' E 139°54'0 0.0
2016-Aug-21 02:32N 35°22' E 139°54'0 0.0
2016-Aug-21 01:32N 35°22' E 139°54'0 0.0
2016-Aug-21 00:32N 35°22' E 139°54'0 0.0
2016-Aug-20 23:32N 35°22' E 139°54'0 0.0
2016-Aug-20 22:32N 35°22' E 139°54'0 0.0
2016-Aug-20 21:32N 35°22' E 139°54'0 0.0
2016-Aug-20 20:32N 35°22' E 139°54'0 0.0
2016-Aug-20 19:29N 35°22' E 139°54'0 0.0
2016-Aug-20 18:17N 35°22' E 139°54'0 0.0
2016-Aug-20 17:32N 35°22' E 139°54'0 0.0
2016-Aug-20 16:32N 35°22' E 139°54'0 0.0
2016-Aug-20 15:26N 35°22' E 139°54'0 0.0
2016-Aug-20 14:32N 35°22' E 139°54'0 0.0
2016-Aug-20 13:29N 35°22' E 139°54'0 0.0
2016-Aug-20 12:32N 35°22' E 139°54'0 0.0
2016-Aug-20 11:32N 35°22' E 139°54'4 4.3
2016-Aug-20 10:33N 35°24' E 139°50'1110.7
2016-Aug-20 09:33N 35°34' E 139°56'7 6.5
2016-Aug-20 08:30N 35°41' E 139°58'0 0.0
2016-Aug-20 07:33N 35°41' E 139°58'0 0.0
2016-Aug-20 06:33N 35°41' E 139°58'0 0.0
2016-Aug-20 05:24N 35°41' E 139°58'0 0.0
2016-Aug-20 04:30N 35°41' E 139°58'0 0.0
2016-Aug-20 03:30N 35°41' E 139°58'0 0.0
2016-Aug-20 02:30N 35°41' E 139°58'0 0.0
2016-Aug-20 01:30N 35°41' E 139°58'0 0.0
2016-Aug-20 00:24N 35°41' E 139°58'0 0.0
2016-Aug-19 23:27N 35°41' E 139°58'0 0.0
2016-Aug-19 22:30N 35°41' E 139°58'0 0.0
2016-Aug-19 21:27N 35°41' E 139°58'0 0.1
2016-Aug-19 20:31N 35°41' E 139°58'0 0.0
2016-Aug-19 19:31N 35°41' E 139°58'0 0.0
2016-Aug-19 18:31N 35°41' E 139°58'0 0.0
2016-Aug-19 17:31N 35°41' E 139°58'0 0.0
2016-Aug-19 16:31N 35°41' E 139°58'0 0.0
2016-Aug-19 15:31N 35°41' E 139°58'0 0.0
2016-Aug-19 14:25N 35°41' E 139°58'0 0.0
2016-Aug-19 13:31N 35°41' E 139°58'0 0.0
2016-Aug-19 12:31N 35°41' E 139°58'0 0.0
2016-Aug-19 11:31N 35°41' E 139°58'0 0.0
2016-Aug-19 10:31N 35°41' E 139°58'0 0.0
2016-Aug-19 09:25N 35°41' E 139°58'0 0.0
2016-Aug-19 08:31N 35°41' E 139°58'0 0.0
2016-Aug-19 07:31N 35°41' E 139°58'0 0.0
2016-Aug-19 06:28N 35°41' E 139°58'0 0.0
2016-Aug-19 05:31N 35°41' E 139°58'0 0.0
2016-Aug-19 04:28N 35°41' E 139°58'0 0.0
2016-Aug-19 03:31N 35°41' E 139°58'0 0.0
2016-Aug-19 02:31N 35°41' E 139°58'0 0.0
2016-Aug-19 01:22N 35°41' E 139°58'0 0.0
2016-Aug-19 00:31N 35°41' E 139°58'0 0.0
2016-Aug-18 23:25N 35°41' E 139°58'0 0.0
2016-Aug-18 22:31N 35°41' E 139°58'0 0.0
2016-Aug-18 21:31N 35°41' E 139°58'0 0.0
2016-Aug-18 20:31N 35°41' E 139°58'0 0.0
2016-Aug-18 19:31N 35°41' E 139°58'0 0.0
2016-Aug-18 18:28N 35°41' E 139°58'0 0.0
2016-Aug-18 17:25N 35°41' E 139°58'0 0.0
2016-Aug-18 16:31N 35°41' E 139°58'0 0.0
2016-Aug-18 15:31N 35°41' E 139°58'0 0.0
2016-Aug-18 14:31N 35°41' E 139°58'0 0.0
2016-Aug-18 13:25N 35°41' E 139°58'0 0.0
2016-Aug-18 12:28N 35°41' E 139°58'0 0.0
2016-Aug-18 11:28N 35°41' E 139°58'0 0.0
2016-Aug-18 10:31N 35°41' E 139°58'0 0.0
2016-Aug-18 09:25N 35°41' E 139°58'0 0.0
2016-Aug-18 08:31N 35°41' E 139°58'0 0.0
2016-Aug-18 07:28N 35°41' E 139°58'0 0.0
2016-Aug-18 06:31N 35°41' E 139°58'0 0.0
2016-Aug-18 05:28N 35°41' E 139°58'0 0.0
2016-Aug-18 04:31N 35°41' E 139°58'0 0.0
2016-Aug-18 03:31N 35°41' E 139°58'0 0.0
2016-Aug-18 02:31N 35°41' E 139°58'0 0.0
2016-Aug-18 01:31N 35°41' E 139°58'0 0.0
2016-Aug-18 00:31N 35°41' E 139°58'0 0.0
2016-Aug-17 23:33N 35°41' E 139°58'4 4.0
2016-Aug-17 22:31N 35°36' E 139°57'0 0.0
2016-Aug-17 21:28N 35°36' E 139°57'0 0.0
2016-Aug-17 20:28N 35°36' E 139°57'0 0.0
2016-Aug-17 19:25N 35°36' E 139°57'0 0.0
2016-Aug-17 18:25N 35°36' E 139°57'0 0.0
2016-Aug-17 17:22N 35°36' E 139°57'0 0.0
2016-Aug-17 16:31N 35°36' E 139°57'0 0.0
2016-Aug-17 15:31N 35°36' E 139°57'0 0.0
2016-Aug-17 14:28N 35°36' E 139°57'0 0.0
2016-Aug-17 13:16N 35°36' E 139°57'0 0.0
2016-Aug-17 12:28N 35°36' E 139°57'0 0.0
2016-Aug-17 11:28N 35°36' E 139°57'0 0.0
2016-Aug-17 10:28N 35°36' E 139°57'0 0.0
2016-Aug-17 09:28N 35°36' E 139°57'0 0.0
2016-Aug-17 08:28N 35°36' E 139°57'0 0.0
2016-Aug-17 07:22N 35°36' E 139°57'0 0.0
2016-Aug-17 06:19N 35°36' E 139°57'0 0.0
2016-Aug-17 03:28N 35°36' E 139°57'0 0.0
2016-Aug-17 02:22N 35°36' E 139°57'0 0.0
2016-Aug-17 01:10N 35°36' E 139°57'0 0.0
2016-Aug-17 00:28N 35°36' E 139°57'0 0.0
2016-Aug-16 23:31N 35°36' E 139°57'0 0.0
2016-Aug-16 22:28N 35°36' E 139°57'0 0.0
2016-Aug-16 21:19N 35°36' E 139°57'0 0.1
2016-Aug-16 20:31N 35°36' E 139°57'0 0.0
2016-Aug-16 19:28N 35°36' E 139°57'0 0.0
2016-Aug-16 18:31N 35°36' E 139°57'0 0.0
2016-Aug-16 17:31N 35°36' E 139°57'0 0.0
2016-Aug-16 16:28N 35°36' E 139°57'0 0.0
2016-Aug-16 15:31N 35°36' E 139°57'0 0.0
2016-Aug-16 14:22N 35°36' E 139°57'0 0.0
2016-Aug-16 13:31N 35°36' E 139°57'0 0.0
2016-Aug-16 12:28N 35°36' E 139°57'0 0.0
2016-Aug-16 11:28N 35°36' E 139°57'0 0.0
2016-Aug-16 10:25N 35°36' E 139°57'0 0.0
2016-Aug-16 09:28N 35°36' E 139°57'0 0.1
2016-Aug-16 08:28N 35°36' E 139°57'0 0.0
2016-Aug-16 07:28N 35°36' E 139°57'0 0.0
2016-Aug-16 04:28N 35°36' E 139°57'0 0.0
2016-Aug-16 03:22N 35°36' E 139°57'0 0.0
2016-Aug-16 02:31N 35°36' E 139°57'0 0.0
2016-Aug-16 01:25N 35°36' E 139°57'0 0.1
2016-Aug-16 00:31N 35°36' E 139°57'0 0.1
2016-Aug-15 23:31N 35°36' E 139°57'0 0.0
2016-Aug-15 22:31N 35°36' E 139°57'0 0.0
2016-Aug-15 21:31N 35°36' E 139°57'0 0.0
2016-Aug-15 20:16N 35°36' E 139°57'0 0.1
2016-Aug-15 19:28N 35°36' E 139°57'0 0.0
2016-Aug-15 18:31N 35°36' E 139°57'0 0.0
2016-Aug-15 17:22N 35°36' E 139°57'0 0.0
2016-Aug-15 16:22N 35°36' E 139°57'0 0.0
2016-Aug-15 15:16N 35°36' E 139°57'0 0.0
2016-Aug-15 14:22N 35°36' E 139°57'0 0.0
2016-Aug-15 13:16N 35°36' E 139°57'0 0.1
2016-Aug-15 12:28N 35°36' E 139°57'0 0.0
2016-Aug-15 11:22N 35°36' E 139°57'0 0.0
2016-Aug-15 10:22N 35°36' E 139°57'0 0.0
2016-Aug-15 09:28N 35°36' E 139°57'0 0.0
2016-Aug-15 08:28N 35°36' E 139°57'1 1.0
2016-Aug-15 07:32N 35°36' E 139°57'7 7.1
2016-Aug-15 06:32N 35°29' E 139°53'2210.7
2016-Aug-15 04:26N 35°08' E 139°46'70 7.9
2016-Aug-14 19:31N 35°49' E 140°56'  

Dump ship's entire track history